sensor_id;sensor_type;location;lat;lon;timestamp;pressure;altitude;pressure_sealevel;temperature
67501;BMP180;54349;52.528;19.760;2023-03-14T00:00:18;98760.80;;;23.30
67501;BMP180;54349;52.528;19.760;2023-03-14T00:03:08;98768.40;;;23.40
67501;BMP180;54349;52.528;19.760;2023-03-14T00:05:37;98770.80;;;23.40
67501;BMP180;54349;52.528;19.760;2023-03-14T00:08:05;98777.60;;;23.40
67501;BMP180;54349;52.528;19.760;2023-03-14T00:10:37;98779.20;;;23.40
67501;BMP180;54349;52.528;19.760;2023-03-14T00:13:05;98775.20;;;23.40
67501;BMP180;54349;52.528;19.760;2023-03-14T00:15:34;98777.00;;;23.40
67501;BMP180;54349;52.528;19.760;2023-03-14T00:18:04;98777.60;;;23.40
67501;BMP180;54349;52.528;19.760;2023-03-14T00:20:32;98780.00;;;23.40
67501;BMP180;54349;52.528;19.760;2023-03-14T00:23:01;98775.20;;;23.40
67501;BMP180;54349;52.528;19.760;2023-03-14T00:25:30;98778.60;;;23.40
67501;BMP180;54349;52.528;19.760;2023-03-14T00:27:59;98778.60;;;23.42
67501;BMP180;54349;52.528;19.760;2023-03-14T00:30:27;98776.40;;;23.48
67501;BMP180;54349;52.528;19.760;2023-03-14T00:32:55;98779.00;;;23.48
67501;BMP180;54349;52.528;19.760;2023-03-14T00:35:24;98762.80;;;23.50
67501;BMP180;54349;52.528;19.760;2023-03-14T00:37:53;98759.20;;;23.44
67501;BMP180;54349;52.528;19.760;2023-03-14T00:40:21;98754.20;;;23.40
67501;BMP180;54349;52.528;19.760;2023-03-14T00:42:49;98750.40;;;23.42
67501;BMP180;54349;52.528;19.760;2023-03-14T00:45:17;98739.60;;;23.40
67501;BMP180;54349;52.528;19.760;2023-03-14T00:47:46;98737.00;;;23.40
67501;BMP180;54349;52.528;19.760;2023-03-14T00:50:14;98742.80;;;23.40
67501;BMP180;54349;52.528;19.760;2023-03-14T00:52:42;98734.60;;;23.40
67501;BMP180;54349;52.528;19.760;2023-03-14T00:55:11;98725.40;;;23.40
67501;BMP180;54349;52.528;19.760;2023-03-14T00:57:39;98724.60;;;23.40
67501;BMP180;54349;52.528;19.760;2023-03-14T01:00:08;98719.80;;;23.40
67501;BMP180;54349;52.528;19.760;2023-03-14T01:02:40;98711.00;;;23.40
67501;BMP180;54349;52.528;19.760;2023-03-14T01:05:08;98711.20;;;23.32
67501;BMP180;54349;52.528;19.760;2023-03-14T01:07:38;98717.20;;;23.30
67501;BMP180;54349;52.528;19.760;2023-03-14T01:10:07;98721.20;;;23.30
67501;BMP180;54349;52.528;19.760;2023-03-14T01:12:40;98712.60;;;23.30
67501;BMP180;54349;52.528;19.760;2023-03-14T01:15:10;98715.80;;;23.30
67501;BMP180;54349;52.528;19.760;2023-03-14T01:17:38;98715.40;;;23.30
67501;BMP180;54349;52.528;19.760;2023-03-14T01:20:11;98711.60;;;23.28
67501;BMP180;54349;52.528;19.760;2023-03-14T01:22:43;98704.60;;;23.20
67501;BMP180;54349;52.528;19.760;2023-03-14T01:25:15;98704.40;;;23.20
67501;BMP180;54349;52.528;19.760;2023-03-14T01:27:44;98714.60;;;23.20
67501;BMP180;54349;52.528;19.760;2023-03-14T01:30:14;98711.00;;;23.20
67501;BMP180;54349;52.528;19.760;2023-03-14T01:32:42;98698.80;;;23.20
67501;BMP180;54349;52.528;19.760;2023-03-14T01:35:11;98705.40;;;23.20
67501;BMP180;54349;52.528;19.760;2023-03-14T01:37:40;98710.40;;;23.20
67501;BMP180;54349;52.528;19.760;2023-03-14T01:40:12;98706.40;;;23.20
67501;BMP180;54349;52.528;19.760;2023-03-14T01:42:57;98687.60;;;23.16
67501;BMP180;54349;52.528;19.760;2023-03-14T01:48:40;98688.80;;;23.10
67501;BMP180;54349;52.528;19.760;2023-03-14T01:51:30;98692.20;;;23.10
67501;BMP180;54349;52.528;19.760;2023-03-14T01:54:21;98696.20;;;23.10
67501;BMP180;54349;52.528;19.760;2023-03-14T01:57:05;98695.80;;;23.10
67501;BMP180;54349;52.528;19.760;2023-03-14T01:59:36;98694.00;;;23.10
67501;BMP180;54349;52.528;19.760;2023-03-14T02:02:09;98690.20;;;23.02
67501;BMP180;54349;52.528;19.760;2023-03-14T02:04:39;98694.60;;;23.02
67501;BMP180;54349;52.528;19.760;2023-03-14T02:07:16;98686.60;;;23.00
67501;BMP180;54349;52.528;19.760;2023-03-14T02:09:57;98694.00;;;23.00
67501;BMP180;54349;52.528;19.760;2023-03-14T02:12:32;98690.00;;;23.00
67501;BMP180;54349;52.528;19.760;2023-03-14T02:15:26;98684.80;;;23.00
67501;BMP180;54349;52.528;19.760;2023-03-14T02:18:07;98685.60;;;23.00
67501;BMP180;54349;52.528;19.760;2023-03-14T02:21:48;98679.40;;;23.00
67501;BMP180;54349;52.528;19.760;2023-03-14T02:24:51;98665.60;;;23.00
67501;BMP180;54349;52.528;19.760;2023-03-14T02:27:23;98667.20;;;23.00
67501;BMP180;54349;52.528;19.760;2023-03-14T02:29:57;98673.20;;;23.00
67501;BMP180;54349;52.528;19.760;2023-03-14T02:32:30;98664.20;;;22.98
67501;BMP180;54349;52.528;19.760;2023-03-14T02:35:05;98660.40;;;22.94
67501;BMP180;54349;52.528;19.760;2023-03-14T02:37:41;98653.20;;;22.90
67501;BMP180;54349;52.528;19.760;2023-03-14T02:40:11;98645.20;;;22.90
67501;BMP180;54349;52.528;19.760;2023-03-14T02:42:40;98634.20;;;22.90
67501;BMP180;54349;52.528;19.760;2023-03-14T02:47:46;98625.40;;;22.90
67501;BMP180;54349;52.528;19.760;2023-03-14T02:50:23;98623.20;;;22.90
67501;BMP180;54349;52.528;19.760;2023-03-14T02:52:54;98615.80;;;22.90
67501;BMP180;54349;52.528;19.760;2023-03-14T02:55:24;98609.40;;;22.90
67501;BMP180;54349;52.528;19.760;2023-03-14T02:57:56;98600.40;;;22.90
67501;BMP180;54349;52.528;19.760;2023-03-14T03:00:26;98597.60;;;22.90
67501;BMP180;54349;52.528;19.760;2023-03-14T03:02:54;98591.80;;;22.90
67501;BMP180;54349;52.528;19.760;2023-03-14T03:05:23;98589.60;;;22.88
67501;BMP180;54349;52.528;19.760;2023-03-14T03:07:51;98588.00;;;22.84
67501;BMP180;54349;52.528;19.760;2023-03-14T03:10:20;98588.20;;;22.80
67501;BMP180;54349;52.528;19.760;2023-03-14T03:12:48;98586.40;;;22.80
67501;BMP180;54349;52.528;19.760;2023-03-14T03:15:17;98578.40;;;22.80
67501;BMP180;54349;52.528;19.760;2023-03-14T03:17:45;98587.00;;;22.80
67501;BMP180;54349;52.528;19.760;2023-03-14T03:20:13;98593.60;;;22.80
67501;BMP180;54349;52.528;19.760;2023-03-14T03:22:41;98586.20;;;22.80
67501;BMP180;54349;52.528;19.760;2023-03-14T03:25:10;98578.20;;;22.80
67501;BMP180;54349;52.528;19.760;2023-03-14T03:27:38;98570.20;;;22.80
67501;BMP180;54349;52.528;19.760;2023-03-14T03:30:08;98582.40;;;22.80
67501;BMP180;54349;52.528;19.760;2023-03-14T03:32:37;98593.60;;;22.80
67501;BMP180;54349;52.528;19.760;2023-03-14T03:35:06;98587.40;;;22.80
67501;BMP180;54349;52.528;19.760;2023-03-14T03:37:38;98580.60;;;22.80
67501;BMP180;54349;52.528;19.760;2023-03-14T03:40:09;98582.00;;;22.80
67501;BMP180;54349;52.528;19.760;2023-03-14T03:42:37;98576.80;;;22.80
67501;BMP180;54349;52.528;19.760;2023-03-14T03:45:09;98571.00;;;22.78
67501;BMP180;54349;52.528;19.760;2023-03-14T03:47:43;98558.80;;;22.80
67501;BMP180;54349;52.528;19.760;2023-03-14T03:50:11;98562.60;;;22.72
67501;BMP180;54349;52.528;19.760;2023-03-14T03:52:40;98552.80;;;22.72
67501;BMP180;54349;52.528;19.760;2023-03-14T03:55:08;98556.00;;;22.70
67501;BMP180;54349;52.528;19.760;2023-03-14T03:57:37;98559.80;;;22.70
67501;BMP180;54349;52.528;19.760;2023-03-14T04:00:07;98564.60;;;22.70
67501;BMP180;54349;52.528;19.760;2023-03-14T04:02:41;98568.40;;;22.70
67501;BMP180;54349;52.528;19.760;2023-03-14T04:05:15;98565.80;;;22.70
67501;BMP180;54349;52.528;19.760;2023-03-14T04:07:58;98576.60;;;22.70
67501;BMP180;54349;52.528;19.760;2023-03-14T04:10:29;98575.00;;;22.70
67501;BMP180;54349;52.528;19.760;2023-03-14T04:13:13;98580.40;;;22.70
67501;BMP180;54349;52.528;19.760;2023-03-14T04:15:43;98584.80;;;22.70
67501;BMP180;54349;52.528;19.760;2023-03-14T04:18:18;98593.60;;;22.70
67501;BMP180;54349;52.528;19.760;2023-03-14T04:20:56;98588.20;;;22.70
67501;BMP180;54349;52.528;19.760;2023-03-14T04:23:32;98575.80;;;22.70
67501;BMP180;54349;52.528;19.760;2023-03-14T04:26:02;98563.20;;;22.70
67501;BMP180;54349;52.528;19.760;2023-03-14T04:28:32;98540.40;;;22.70
67501;BMP180;54349;52.528;19.760;2023-03-14T04:31:12;98525.00;;;22.70
67501;BMP180;54349;52.528;19.760;2023-03-14T04:33:43;98500.00;;;22.70
67501;BMP180;54349;52.528;19.760;2023-03-14T04:36:14;98497.60;;;22.68
67501;BMP180;54349;52.528;19.760;2023-03-14T04:38:43;98491.80;;;22.68
67501;BMP180;54349;52.528;19.760;2023-03-14T04:41:12;98515.20;;;22.64
67501;BMP180;54349;52.528;19.760;2023-03-14T04:43:40;98515.20;;;22.64
67501;BMP180;54349;52.528;19.760;2023-03-14T04:46:11;98506.00;;;22.62
67501;BMP180;54349;52.528;19.760;2023-03-14T04:48:40;98510.80;;;22.64
67501;BMP180;54349;52.528;19.760;2023-03-14T04:51:09;98507.20;;;22.60
67501;BMP180;54349;52.528;19.760;2023-03-14T04:53:37;98501.40;;;22.60
67501;BMP180;54349;52.528;19.760;2023-03-14T04:56:10;98494.40;;;22.60
67501;BMP180;54349;52.528;19.760;2023-03-14T04:58:43;98508.00;;;22.60
67501;BMP180;54349;52.528;19.760;2023-03-14T05:01:15;98500.20;;;22.60
67501;BMP180;54349;52.528;19.760;2023-03-14T05:04:01;98497.80;;;22.60
67501;BMP180;54349;52.528;19.760;2023-03-14T05:06:47;98491.80;;;22.60
67501;BMP180;54349;52.528;19.760;2023-03-14T05:09:44;98498.60;;;22.60
67501;BMP180;54349;52.528;19.760;2023-03-14T05:12:34;98502.40;;;22.60
67501;BMP180;54349;52.528;19.760;2023-03-14T05:15:21;98486.40;;;22.60
67501;BMP180;54349;52.528;19.760;2023-03-14T05:18:09;98485.60;;;22.60
67501;BMP180;54349;52.528;19.760;2023-03-14T05:20:58;98477.20;;;22.60
67501;BMP180;54349;52.528;19.760;2023-03-14T05:23:46;98488.00;;;22.60
67501;BMP180;54349;52.528;19.760;2023-03-14T05:26:50;98486.80;;;22.60
67501;BMP180;54349;52.528;19.760;2023-03-14T05:29:38;98480.60;;;22.60
67501;BMP180;54349;52.528;19.760;2023-03-14T05:32:22;98479.00;;;22.60
67501;BMP180;54349;52.528;19.760;2023-03-14T05:35:17;98477.60;;;22.60
67501;BMP180;54349;52.528;19.760;2023-03-14T05:37:52;98476.20;;;22.60
67501;BMP180;54349;52.528;19.760;2023-03-14T05:40:57;98474.60;;;22.60
67501;BMP180;54349;52.528;19.760;2023-03-14T05:43:44;98484.40;;;22.60
67501;BMP180;54349;52.528;19.760;2023-03-14T05:46:34;98486.60;;;22.60
67501;BMP180;54349;52.528;19.760;2023-03-14T05:49:14;98486.20;;;22.60
67501;BMP180;54349;52.528;19.760;2023-03-14T05:52:02;98479.60;;;22.60
67501;BMP180;54349;52.528;19.760;2023-03-14T05:54:55;98471.20;;;22.60
67501;BMP180;54349;52.528;19.760;2023-03-14T05:57:37;98472.00;;;22.60
67501;BMP180;54349;52.528;19.760;2023-03-14T06:00:20;98465.60;;;22.60
67501;BMP180;54349;52.528;19.760;2023-03-14T06:03:02;98467.40;;;22.60
67501;BMP180;54349;52.528;19.760;2023-03-14T06:05:33;98472.80;;;22.60
67501;BMP180;54349;52.528;19.760;2023-03-14T06:08:02;98462.80;;;22.60
67501;BMP180;54349;52.528;19.760;2023-03-14T06:10:31;98459.60;;;22.60
67501;BMP180;54349;52.528;19.760;2023-03-14T06:13:00;98454.40;;;22.60
67501;BMP180;54349;52.528;19.760;2023-03-14T06:15:29;98448.60;;;22.60
67501;BMP180;54349;52.528;19.760;2023-03-14T06:17:57;98450.00;;;22.60
67501;BMP180;54349;52.528;19.760;2023-03-14T06:20:26;98458.60;;;22.60
67501;BMP180;54349;52.528;19.760;2023-03-14T06:22:54;98467.60;;;22.60
67501;BMP180;54349;52.528;19.760;2023-03-14T06:25:23;98470.20;;;22.60
67501;BMP180;54349;52.528;19.760;2023-03-14T06:27:51;98472.80;;;22.60
67501;BMP180;54349;52.528;19.760;2023-03-14T06:30:19;98475.40;;;22.60
67501;BMP180;54349;52.528;19.760;2023-03-14T06:32:49;98472.60;;;22.60
67501;BMP180;54349;52.528;19.760;2023-03-14T06:35:18;98477.60;;;22.60
67501;BMP180;54349;52.528;19.760;2023-03-14T06:37:46;98488.00;;;22.60
67501;BMP180;54349;52.528;19.760;2023-03-14T06:40:14;98493.40;;;22.60
67501;BMP180;54349;52.528;19.760;2023-03-14T06:42:52;98493.80;;;22.60
67501;BMP180;54349;52.528;19.760;2023-03-14T06:45:21;98506.40;;;22.60
67501;BMP180;54349;52.528;19.760;2023-03-14T06:47:50;98512.00;;;22.60
67501;BMP180;54349;52.528;19.760;2023-03-14T06:50:20;98515.80;;;22.60
67501;BMP180;54349;52.528;19.760;2023-03-14T06:52:50;98516.00;;;22.60
67501;BMP180;54349;52.528;19.760;2023-03-14T06:55:23;98514.00;;;22.60
67501;BMP180;54349;52.528;19.760;2023-03-14T06:57:51;98514.20;;;22.60
67501;BMP180;54349;52.528;19.760;2023-03-14T07:00:21;98512.80;;;22.60
67501;BMP180;54349;52.528;19.760;2023-03-14T07:02:52;98514.20;;;22.56
67501;BMP180;54349;52.528;19.760;2023-03-14T07:05:26;98509.20;;;22.50
67501;BMP180;54349;52.528;19.760;2023-03-14T07:07:56;98512.80;;;22.52
67501;BMP180;54349;52.528;19.760;2023-03-14T07:10:26;98513.20;;;22.52
67501;BMP180;54349;52.528;19.760;2023-03-14T07:12:56;98503.20;;;22.50
67501;BMP180;54349;52.528;19.760;2023-03-14T07:15:25;98503.60;;;22.50
67501;BMP180;54349;52.528;19.760;2023-03-14T07:17:57;98500.20;;;22.50
67501;BMP180;54349;52.528;19.760;2023-03-14T07:20:26;98505.20;;;22.50
67501;BMP180;54349;52.528;19.760;2023-03-14T07:22:55;98506.20;;;22.50
67501;BMP180;54349;52.528;19.760;2023-03-14T07:25:34;98508.60;;;22.50
67501;BMP180;54349;52.528;19.760;2023-03-14T07:28:02;98511.20;;;22.50
67501;BMP180;54349;52.528;19.760;2023-03-14T07:30:32;98516.00;;;22.52
67501;BMP180;54349;52.528;19.760;2023-03-14T07:33:02;98518.00;;;22.60
67501;BMP180;54349;52.528;19.760;2023-03-14T07:35:31;98519.00;;;22.60
67501;BMP180;54349;52.528;19.760;2023-03-14T07:38:01;98525.00;;;22.60
67501;BMP180;54349;52.528;19.760;2023-03-14T07:40:34;98524.00;;;22.60
67501;BMP180;54349;52.528;19.760;2023-03-14T07:43:03;98523.80;;;22.60
67501;BMP180;54349;52.528;19.760;2023-03-14T07:45:46;98520.20;;;22.70
67501;BMP180;54349;52.528;19.760;2023-03-14T07:48:18;98515.00;;;22.70
67501;BMP180;54349;52.528;19.760;2023-03-14T07:50:51;98510.80;;;22.70
67501;BMP180;54349;52.528;19.760;2023-03-14T07:53:21;98518.40;;;22.70
67501;BMP180;54349;52.528;19.760;2023-03-14T07:55:51;98519.60;;;22.72
67501;BMP180;54349;52.528;19.760;2023-03-14T07:58:21;98516.60;;;22.78
67501;BMP180;54349;52.528;19.760;2023-03-14T08:00:51;98510.00;;;22.80
67501;BMP180;54349;52.528;19.760;2023-03-14T08:03:19;98495.80;;;22.80
67501;BMP180;54349;52.528;19.760;2023-03-14T08:05:49;98489.20;;;22.86
67501;BMP180;54349;52.528;19.760;2023-03-14T08:08:18;98494.60;;;22.90
67501;BMP180;54349;52.528;19.760;2023-03-14T08:10:47;98503.00;;;22.90
67501;BMP180;54349;52.528;19.760;2023-03-14T08:13:16;98507.60;;;22.90
67501;BMP180;54349;52.528;19.760;2023-03-14T08:15:48;98511.00;;;22.90
67501;BMP180;54349;52.528;19.760;2023-03-14T08:18:17;98505.00;;;22.90
67501;BMP180;54349;52.528;19.760;2023-03-14T08:20:45;98502.00;;;22.90
67501;BMP180;54349;52.528;19.760;2023-03-14T08:23:13;98492.80;;;22.90
67501;BMP180;54349;52.528;19.760;2023-03-14T08:25:41;98491.00;;;23.00
67501;BMP180;54349;52.528;19.760;2023-03-14T08:28:11;98497.20;;;23.00
67501;BMP180;54349;52.528;19.760;2023-03-14T08:30:43;98496.80;;;23.00
67501;BMP180;54349;52.528;19.760;2023-03-14T08:33:15;98494.40;;;23.00
67501;BMP180;54349;52.528;19.760;2023-03-14T08:35:45;98495.20;;;23.00
67501;BMP180;54349;52.528;19.760;2023-03-14T08:38:15;98492.80;;;23.00
67501;BMP180;54349;52.528;19.760;2023-03-14T08:40:43;98488.20;;;23.00
67501;BMP180;54349;52.528;19.760;2023-03-14T08:43:12;98484.80;;;23.00
67501;BMP180;54349;52.528;19.760;2023-03-14T08:45:41;98484.20;;;23.00
67501;BMP180;54349;52.528;19.760;2023-03-14T08:48:10;98486.00;;;23.00
67501;BMP180;54349;52.528;19.760;2023-03-14T08:50:39;98486.60;;;23.00
67501;BMP180;54349;52.528;19.760;2023-03-14T08:53:09;98482.00;;;23.00
67501;BMP180;54349;52.528;19.760;2023-03-14T08:55:40;98489.80;;;23.00
67501;BMP180;54349;52.528;19.760;2023-03-14T08:58:10;98487.00;;;23.00
67501;BMP180;54349;52.528;19.760;2023-03-14T09:00:41;98487.20;;;23.00
67501;BMP180;54349;52.528;19.760;2023-03-14T09:03:10;98484.20;;;23.00
67501;BMP180;54349;52.528;19.760;2023-03-14T09:05:40;98478.60;;;23.00
67501;BMP180;54349;52.528;19.760;2023-03-14T09:08:09;98483.20;;;23.00
67501;BMP180;54349;52.528;19.760;2023-03-14T09:10:39;98485.20;;;22.98
67501;BMP180;54349;52.528;19.760;2023-03-14T09:13:09;98480.00;;;23.00
67501;BMP180;54349;52.528;19.760;2023-03-14T09:15:40;98478.20;;;23.00
67501;BMP180;54349;52.528;19.760;2023-03-14T09:18:11;98482.40;;;22.96
67501;BMP180;54349;52.528;19.760;2023-03-14T09:20:40;98477.60;;;22.98
67501;BMP180;54349;52.528;19.760;2023-03-14T09:23:11;98479.60;;;22.98
67501;BMP180;54349;52.528;19.760;2023-03-14T09:25:41;98473.00;;;23.00
67501;BMP180;54349;52.528;19.760;2023-03-14T09:28:10;98471.80;;;23.00
67501;BMP180;54349;52.528;19.760;2023-03-14T09:30:44;98467.00;;;23.00
67501;BMP180;54349;52.528;19.760;2023-03-14T09:33:13;98462.60;;;23.00
67501;BMP180;54349;52.528;19.760;2023-03-14T09:35:42;98461.20;;;23.00
67501;BMP180;54349;52.528;19.760;2023-03-14T09:38:11;98461.00;;;23.00
67501;BMP180;54349;52.528;19.760;2023-03-14T09:40:40;98466.00;;;23.04
67501;BMP180;54349;52.528;19.760;2023-03-14T09:43:14;98479.40;;;23.10
67501;BMP180;54349;52.528;19.760;2023-03-14T09:45:46;98482.00;;;23.10
67501;BMP180;54349;52.528;19.760;2023-03-14T09:48:21;98487.20;;;23.10
67501;BMP180;54349;52.528;19.760;2023-03-14T09:50:53;98489.80;;;23.10
67501;BMP180;54349;52.528;19.760;2023-03-14T09:53:44;98494.20;;;23.10
67501;BMP180;54349;52.528;19.760;2023-03-14T09:56:25;98494.00;;;23.10
67501;BMP180;54349;52.528;19.760;2023-03-14T09:58:58;98497.00;;;23.10
67501;BMP180;54349;52.528;19.760;2023-03-14T10:01:30;98487.80;;;23.10
67501;BMP180;54349;52.528;19.760;2023-03-14T10:04:10;98483.80;;;23.10
67501;BMP180;54349;52.528;19.760;2023-03-14T10:06:41;98494.20;;;23.10
67501;BMP180;54349;52.528;19.760;2023-03-14T10:09:22;98492.60;;;23.10
67501;BMP180;54349;52.528;19.760;2023-03-14T10:11:58;98495.20;;;23.10
67501;BMP180;54349;52.528;19.760;2023-03-14T10:14:45;98501.00;;;23.10
67501;BMP180;54349;52.528;19.760;2023-03-14T10:17:17;98495.40;;;23.08
67501;BMP180;54349;52.528;19.760;2023-03-14T10:19:57;98498.60;;;23.08
67501;BMP180;54349;52.528;19.760;2023-03-14T10:22:30;98504.20;;;23.10
67501;BMP180;54349;52.528;19.760;2023-03-14T10:25:06;98505.60;;;23.08
67501;BMP180;54349;52.528;19.760;2023-03-14T10:27:36;98494.60;;;23.10
67501;BMP180;54349;52.528;19.760;2023-03-14T10:30:14;98486.20;;;23.10
67501;BMP180;54349;52.528;19.760;2023-03-14T10:32:55;98482.00;;;23.10
67501;BMP180;54349;52.528;19.760;2023-03-14T10:35:25;98484.20;;;23.10
67501;BMP180;54349;52.528;19.760;2023-03-14T10:38:03;98480.60;;;23.10
67501;BMP180;54349;52.528;19.760;2023-03-14T10:40:49;98477.00;;;23.10
67501;BMP180;54349;52.528;19.760;2023-03-14T10:43:31;98472.40;;;23.10
67501;BMP180;54349;52.528;19.760;2023-03-14T10:46:15;98468.40;;;23.10
67501;BMP180;54349;52.528;19.760;2023-03-14T10:49:06;98462.80;;;23.10
67501;BMP180;54349;52.528;19.760;2023-03-14T10:51:35;98459.60;;;23.10
67501;BMP180;54349;52.528;19.760;2023-03-14T10:54:22;98457.40;;;23.10
67501;BMP180;54349;52.528;19.760;2023-03-14T10:57:04;98448.00;;;23.18
67501;BMP180;54349;52.528;19.760;2023-03-14T10:59:39;98449.80;;;23.20
67501;BMP180;54349;52.528;19.760;2023-03-14T11:02:42;98444.60;;;23.20
67501;BMP180;54349;52.528;19.760;2023-03-14T11:06:06;98448.40;;;23.20
67501;BMP180;54349;52.528;19.760;2023-03-14T11:09:04;98447.40;;;23.20
67501;BMP180;54349;52.528;19.760;2023-03-14T11:11:36;98445.80;;;23.20
67501;BMP180;54349;52.528;19.760;2023-03-14T11:14:27;98447.80;;;23.20
67501;BMP180;54349;52.528;19.760;2023-03-14T11:17:37;98452.00;;;23.20
67501;BMP180;54349;52.528;19.760;2023-03-14T11:23:19;98457.00;;;23.28
67501;BMP180;54349;52.528;19.760;2023-03-14T11:28:47;98467.40;;;23.30
67501;BMP180;54349;52.528;19.760;2023-03-14T11:31:29;98470.60;;;23.30
67501;BMP180;54349;52.528;19.760;2023-03-14T11:34:33;98472.60;;;23.30
67501;BMP180;54349;52.528;19.760;2023-03-14T11:37:14;98477.80;;;23.30
67501;BMP180;54349;52.528;19.760;2023-03-14T11:40:17;98478.20;;;23.30
67501;BMP180;54349;52.528;19.760;2023-03-14T11:42:45;98472.80;;;23.30
67501;BMP180;54349;52.528;19.760;2023-03-14T11:45:22;98477.20;;;23.30
67501;BMP180;54349;52.528;19.760;2023-03-14T11:48:13;98480.40;;;23.30
67501;BMP180;54349;52.528;19.760;2023-03-14T11:50:46;98487.20;;;23.30
67501;BMP180;54349;52.528;19.760;2023-03-14T11:53:34;98493.60;;;23.30
67501;BMP180;54349;52.528;19.760;2023-03-14T11:56:27;98489.40;;;23.30
67501;BMP180;54349;52.528;19.760;2023-03-14T11:59:03;98492.00;;;23.30
67501;BMP180;54349;52.528;19.760;2023-03-14T12:01:52;98494.20;;;23.30
67501;BMP180;54349;52.528;19.760;2023-03-14T12:10:51;98501.40;;;23.26
67501;BMP180;54349;52.528;19.760;2023-03-14T12:13:20;98501.20;;;23.20
67501;BMP180;54349;52.528;19.760;2023-03-14T12:15:58;98502.20;;;23.20
67501;BMP180;54349;52.528;19.760;2023-03-14T12:18:32;98503.00;;;23.20
67501;BMP180;54349;52.528;19.760;2023-03-14T12:21:04;98499.00;;;23.20
67501;BMP180;54349;52.528;19.760;2023-03-14T12:23:44;98500.60;;;23.20
67501;BMP180;54349;52.528;19.760;2023-03-14T12:26:20;98501.20;;;23.20
67501;BMP180;54349;52.528;19.760;2023-03-14T12:42:44;98489.60;;;23.20
67501;BMP180;54349;52.528;19.760;2023-03-14T12:45:36;98485.20;;;23.20
67501;BMP180;54349;52.528;19.760;2023-03-14T12:48:23;98478.80;;;23.20
67501;BMP180;54349;52.528;19.760;2023-03-14T12:51:05;98470.00;;;23.20
67501;BMP180;54349;52.528;19.760;2023-03-14T12:59:38;98480.40;;;23.30
67501;BMP180;54349;52.528;19.760;2023-03-14T13:07:33;98483.60;;;23.30
67501;BMP180;54349;52.528;19.760;2023-03-14T13:10:26;98482.80;;;23.30
67501;BMP180;54349;52.528;19.760;2023-03-14T13:15:39;98483.40;;;23.30
67501;BMP180;54349;52.528;19.760;2023-03-14T13:18:23;98470.20;;;23.30
67501;BMP180;54349;52.528;19.760;2023-03-14T13:21:22;98457.00;;;23.30
67501;BMP180;54349;52.528;19.760;2023-03-14T13:23:57;98440.80;;;23.30
67501;BMP180;54349;52.528;19.760;2023-03-14T13:26:39;98430.80;;;23.30
67501;BMP180;54349;52.528;19.760;2023-03-14T13:29:19;98437.20;;;23.30
67501;BMP180;54349;52.528;19.760;2023-03-14T13:31:52;98449.20;;;23.30
67501;BMP180;54349;52.528;19.760;2023-03-14T13:34:20;98452.00;;;23.30
67501;BMP180;54349;52.528;19.760;2023-03-14T13:36:52;98460.80;;;23.30
67501;BMP180;54349;52.528;19.760;2023-03-14T13:39:24;98467.00;;;23.30
67501;BMP180;54349;52.528;19.760;2023-03-14T13:41:57;98459.40;;;23.30
67501;BMP180;54349;52.528;19.760;2023-03-14T13:44:31;98462.20;;;23.30
67501;BMP180;54349;52.528;19.760;2023-03-14T13:47:03;98470.80;;;23.30
67501;BMP180;54349;52.528;19.760;2023-03-14T13:49:33;98470.80;;;23.30
67501;BMP180;54349;52.528;19.760;2023-03-14T13:52:41;98471.20;;;23.30
67501;BMP180;54349;52.528;19.760;2023-03-14T13:55:18;98476.80;;;23.30
67501;BMP180;54349;52.528;19.760;2023-03-14T13:57:52;98472.80;;;23.30
67501;BMP180;54349;52.528;19.760;2023-03-14T14:00:26;98471.00;;;23.30
67501;BMP180;54349;52.528;19.760;2023-03-14T14:02:58;98463.20;;;23.24
67501;BMP180;54349;52.528;19.760;2023-03-14T14:05:28;98458.60;;;23.28
67501;BMP180;54349;52.528;19.760;2023-03-14T14:07:57;98453.80;;;23.26
67501;BMP180;54349;52.528;19.760;2023-03-14T14:10:28;98447.00;;;23.26
67501;BMP180;54349;52.528;19.760;2023-03-14T14:13:03;98450.20;;;23.24
67501;BMP180;54349;52.528;19.760;2023-03-14T14:15:41;98447.80;;;23.24
67501;BMP180;54349;52.528;19.760;2023-03-14T14:18:15;98447.00;;;23.24
67501;BMP180;54349;52.528;19.760;2023-03-14T14:20:46;98445.40;;;23.24
67501;BMP180;54349;52.528;19.760;2023-03-14T14:23:22;98450.40;;;23.20
67501;BMP180;54349;52.528;19.760;2023-03-14T14:25:57;98461.60;;;23.20
67501;BMP180;54349;52.528;19.760;2023-03-14T14:28:29;98466.60;;;23.20
67501;BMP180;54349;52.528;19.760;2023-03-14T14:31:19;98466.40;;;23.20
67501;BMP180;54349;52.528;19.760;2023-03-14T14:34:01;98453.60;;;23.20
67501;BMP180;54349;52.528;19.760;2023-03-14T14:36:48;98456.60;;;23.14
67501;BMP180;54349;52.528;19.760;2023-03-14T14:39:23;98455.80;;;23.10
67501;BMP180;54349;52.528;19.760;2023-03-14T14:41:55;98449.20;;;23.10
67501;BMP180;54349;52.528;19.760;2023-03-14T14:44:32;98447.40;;;23.10
67501;BMP180;54349;52.528;19.760;2023-03-14T14:47:05;98452.60;;;23.10
67501;BMP180;54349;52.528;19.760;2023-03-14T14:49:34;98452.20;;;23.10
67501;BMP180;54349;52.528;19.760;2023-03-14T14:52:13;98451.00;;;23.10
67501;BMP180;54349;52.528;19.760;2023-03-14T14:54:57;98447.80;;;23.10
67501;BMP180;54349;52.528;19.760;2023-03-14T14:57:31;98448.40;;;23.10
67501;BMP180;54349;52.528;19.760;2023-03-14T15:00:18;98451.80;;;23.10
67501;BMP180;54349;52.528;19.760;2023-03-14T15:02:51;98459.20;;;23.10
67501;BMP180;54349;52.528;19.760;2023-03-14T15:05:26;98463.40;;;23.10
67501;BMP180;54349;52.528;19.760;2023-03-14T15:07:55;98458.80;;;23.10
67501;BMP180;54349;52.528;19.760;2023-03-14T15:10:25;98469.80;;;23.10
67501;BMP180;54349;52.528;19.760;2023-03-14T15:12:54;98465.00;;;23.10
67501;BMP180;54349;52.528;19.760;2023-03-14T15:15:24;98460.60;;;23.12
67501;BMP180;54349;52.528;19.760;2023-03-14T15:17:53;98460.40;;;23.18
67501;BMP180;54349;52.528;19.760;2023-03-14T15:20:24;98452.60;;;23.18
67501;BMP180;54349;52.528;19.760;2023-03-14T15:22:54;98451.80;;;23.18
67501;BMP180;54349;52.528;19.760;2023-03-14T15:25:23;98452.40;;;23.20